createdAt,value
2018-04-13T00:00:13.211Z,1000.79
2018-04-13T00:01:13.209Z,1000.82
2018-04-13T00:02:13.208Z,1000.76
2018-04-13T00:03:13.230Z,1000.71
2018-04-13T00:04:13.290Z,1000.82
2018-04-13T00:05:13.289Z,1000.75
2018-04-13T00:06:13.294Z,1000.83
2018-04-13T00:07:13.305Z,1000.83
2018-04-13T00:08:13.309Z,1000.78
2018-04-13T00:09:13.316Z,1000.78
2018-04-13T00:10:13.372Z,1000.77
2018-04-13T00:11:13.384Z,1000.82
2018-04-13T00:12:13.350Z,1000.83
2018-04-13T00:13:13.357Z,1000.74
2018-04-13T00:14:13.393Z,1000.75
2018-04-13T00:15:13.406Z,1000.76
2018-04-13T00:16:13.399Z,1000.76
2018-04-13T00:17:13.420Z,1000.71
2018-04-13T00:18:13.492Z,1000.72
2018-04-13T00:19:13.447Z,1000.76
2018-04-13T00:20:13.489Z,1000.76
2018-04-13T00:21:13.495Z,1000.76
2018-04-13T00:22:13.498Z,1000.70
2018-04-13T00:23:13.504Z,1000.73
2018-04-13T00:24:13.510Z,1000.68
2018-04-13T00:25:13.522Z,1000.74
2018-04-13T00:26:13.593Z,1000.73
2018-04-13T00:27:13.555Z,1000.69
2018-04-13T00:28:13.634Z,1000.67
2018-04-13T00:29:13.618Z,1000.71
2018-04-13T00:30:13.603Z,1000.69
2018-04-13T00:31:13.601Z,1000.70
2018-04-13T00:32:13.605Z,1000.73
2018-04-13T00:33:13.666Z,1000.68
2018-04-13T00:34:13.632Z,1000.75
2018-04-13T00:35:13.787Z,1000.70
2018-04-13T00:36:13.668Z,1000.68
2018-04-13T00:37:13.699Z,1000.70
2018-04-13T00:38:13.681Z,1000.71
2018-04-13T00:39:13.715Z,1000.71
2018-04-13T00:40:13.769Z,1000.77
2018-04-13T00:41:13.730Z,1000.74
2018-04-13T00:42:13.745Z,1000.72
2018-04-13T00:43:13.769Z,1000.71
2018-04-13T00:44:13.793Z,1000.69
2018-04-13T00:45:13.855Z,1000.69
2018-04-13T00:46:13.798Z,1000.73
2018-04-13T00:47:13.803Z,1000.64
2018-04-13T00:48:13.855Z,1000.73
2018-04-13T00:49:13.836Z,1000.67
2018-04-13T00:50:13.907Z,1000.71
2018-04-13T00:51:13.870Z,1000.60
2018-04-13T00:52:13.877Z,1000.68
2018-04-13T00:53:13.890Z,1000.61
2018-04-13T00:54:13.917Z,1000.63
2018-04-13T00:55:13.946Z,1000.64
2018-04-13T00:56:13.924Z,1000.69
2018-04-13T00:57:13.934Z,1000.63
2018-04-13T00:58:13.963Z,1000.76
2018-04-13T00:59:14.035Z,1000.65
2018-04-13T01:00:14.013Z,1000.62
2018-04-13T01:01:14.019Z,1000.65
2018-04-13T01:02:14.000Z,1000.65
2018-04-13T01:03:14.015Z,1000.65
2018-04-13T01:04:14.028Z,1000.62
2018-04-13T01:05:14.068Z,1000.64
2018-04-13T01:06:14.095Z,1000.62
2018-04-13T01:07:14.058Z,1000.68
2018-04-13T01:08:14.074Z,1000.66
2018-04-13T01:09:14.080Z,1000.60
2018-04-13T01:10:14.131Z,1000.62
2018-04-13T01:11:14.165Z,1000.63
2018-04-13T01:12:14.118Z,1000.56
2018-04-13T01:13:14.147Z,1000.66
2018-04-13T01:14:14.193Z,1000.61
2018-04-13T01:15:14.175Z,1000.59
2018-04-13T01:16:14.265Z,1000.60
2018-04-13T01:17:14.213Z,1000.62
2018-04-13T01:18:14.214Z,1000.57
2018-04-13T01:19:14.217Z,1000.66
2018-04-13T01:20:14.236Z,1000.60
2018-04-13T01:21:14.379Z,1000.62
2018-04-13T01:22:14.265Z,1000.58
2018-04-13T01:23:14.285Z,1000.56
2018-04-13T01:24:14.322Z,1000.55
2018-04-13T01:25:14.288Z,1000.54
2018-04-13T01:26:14.346Z,1000.53
2018-04-13T01:27:14.365Z,1000.49
2018-04-13T01:28:14.346Z,1000.46
2018-04-13T01:29:14.352Z,1000.49
2018-04-13T01:30:14.361Z,1000.45
2018-04-13T01:31:14.386Z,1000.42
2018-04-13T01:32:14.415Z,1000.46
2018-04-13T01:33:14.456Z,1000.49
2018-04-13T01:34:14.435Z,1000.44
2018-04-13T01:35:14.416Z,1000.44
2018-04-13T01:36:14.463Z,1000.46
2018-04-13T01:37:14.469Z,1000.47
2018-04-13T01:38:14.492Z,1000.47
2018-04-13T01:39:14.493Z,1000.57
2018-04-13T01:40:14.530Z,1000.48
2018-04-13T01:41:14.499Z,1000.51
2018-04-13T01:42:14.512Z,1000.44
2018-04-13T01:43:14.574Z,1000.47
2018-04-13T01:44:14.536Z,1000.52
2018-04-13T01:45:14.567Z,1000.51
2018-04-13T01:46:14.575Z,1000.55
2018-04-13T01:47:14.604Z,1000.54
2018-04-13T01:48:14.635Z,1000.51
2018-04-13T01:49:14.616Z,1000.51
2018-04-13T01:50:14.619Z,1000.48
2018-04-13T01:51:14.629Z,1000.51
2018-04-13T01:52:14.643Z,1000.45
2018-04-13T01:53:14.726Z,1000.43
2018-04-13T01:54:14.699Z,1000.42
2018-04-13T01:55:14.694Z,1000.50
2018-04-13T01:56:14.699Z,1000.40
2018-04-13T01:57:14.721Z,1000.45
2018-04-13T01:58:14.782Z,1000.37
2018-04-13T01:59:14.794Z,1000.40
2018-04-13T02:00:14.742Z,1000.38
2018-04-13T02:01:14.780Z,1000.39
2018-04-13T02:02:14.807Z,1000.33
2018-04-13T02:03:14.791Z,1000.31
2018-04-13T02:04:14.817Z,1000.28
2018-04-13T02:05:14.861Z,1000.28
2018-04-13T02:06:14.832Z,1000.31
2018-04-13T02:07:14.843Z,1000.29
2018-04-13T02:08:14.847Z,1000.29
2018-04-13T02:09:14.873Z,1000.31
2018-04-13T02:10:14.974Z,1000.33
2018-04-13T02:11:14.918Z,1000.31
2018-04-13T02:12:14.920Z,1000.29
2018-04-13T02:13:14.942Z,1000.26
2018-04-13T02:14:14.927Z,1000.29
2018-04-13T02:15:14.949Z,1000.28
2018-04-13T02:16:14.997Z,1000.31
2018-04-13T02:17:14.970Z,1000.36
2018-04-13T02:18:14.983Z,1000.35
2018-04-13T02:19:15.013Z,1000.37
2018-04-13T02:20:15.025Z,1000.36
2018-04-13T02:21:15.288Z,1000.30
2018-04-13T02:22:15.048Z,1000.34
2018-04-13T02:23:15.042Z,1000.34
2018-04-13T02:24:15.083Z,1000.33
2018-04-13T02:25:15.136Z,1000.34
2018-04-13T02:26:15.086Z,1000.32
2018-04-13T02:27:15.116Z,1000.33
2018-04-13T02:28:15.125Z,1000.39
2018-04-13T02:29:15.139Z,1000.32
2018-04-13T02:30:15.145Z,1000.35
2018-04-13T02:31:15.172Z,1000.31
2018-04-13T02:32:15.216Z,1000.34
2018-04-13T02:33:15.180Z,1000.32
2018-04-13T02:34:15.212Z,1000.37
2018-04-13T02:35:15.220Z,1000.29
2018-04-13T02:36:15.242Z,1000.28
2018-04-13T02:37:15.271Z,1000.32
2018-04-13T02:38:15.243Z,1000.35
2018-04-13T02:39:15.270Z,1000.34
2018-04-13T02:40:15.283Z,1000.29
2018-04-13T02:41:15.278Z,1000.38
2018-04-13T02:42:15.324Z,1000.37
2018-04-13T02:43:15.346Z,1000.36
2018-04-13T02:44:15.360Z,1000.41
2018-04-13T02:45:15.346Z,1000.33
2018-04-13T02:46:15.372Z,1000.34
2018-04-13T02:47:15.382Z,1000.42
2018-04-13T02:48:15.375Z,1000.37
2018-04-13T02:49:15.453Z,1000.43
2018-04-13T02:50:15.390Z,1000.46
2018-04-13T02:51:15.402Z,1000.46
2018-04-13T02:52:15.436Z,1000.52
2018-04-13T02:53:15.468Z,1000.49
2018-04-13T02:54:15.507Z,1000.47
2018-04-13T02:55:15.478Z,1000.52
2018-04-13T02:56:15.489Z,1000.57
2018-04-13T02:57:15.504Z,1000.52
2018-04-13T02:58:15.508Z,1000.58
2018-04-13T02:59:15.554Z,1000.53
2018-04-13T03:00:15.546Z,1000.54
2018-04-13T03:01:15.646Z,1000.60
2018-04-13T03:02:15.559Z,1000.57
2018-04-13T03:03:15.625Z,1000.55
2018-04-13T03:04:15.597Z,1000.58
2018-04-13T03:05:15.621Z,1000.56
2018-04-13T03:06:15.665Z,1000.54
2018-04-13T03:07:15.618Z,1000.57
2018-04-13T03:08:15.628Z,1000.54
2018-04-13T03:09:15.633Z,1000.57
2018-04-13T03:10:15.660Z,1000.56
2018-04-13T03:11:15.701Z,1000.53
2018-04-13T03:12:15.754Z,1000.51
2018-04-13T03:13:15.696Z,1000.50
2018-04-13T03:14:15.707Z,1000.49
2018-04-13T03:15:15.714Z,1000.61
2018-04-13T03:16:15.733Z,1000.54
2018-04-13T03:17:15.750Z,1000.52
2018-04-13T03:18:15.788Z,1000.51
2018-04-13T03:19:15.788Z,1000.50
2018-04-13T03:20:15.793Z,1000.51
2018-04-13T03:21:15.795Z,1000.56
2018-04-13T03:22:15.823Z,1000.57
2018-04-13T03:23:15.870Z,1000.55
2018-04-13T03:24:15.860Z,1000.63
2018-04-13T03:25:15.878Z,1000.57
2018-04-13T03:26:15.846Z,1000.57
2018-04-13T03:27:15.876Z,1000.62
2018-04-13T03:28:15.903Z,1000.63
2018-04-13T03:29:15.954Z,1000.62
2018-04-13T03:30:15.933Z,1000.67
2018-04-13T03:31:15.961Z,1000.66
2018-04-13T03:32:15.924Z,1000.62
2018-04-13T03:33:15.936Z,1000.55
2018-04-13T03:34:15.996Z,1000.61
2018-04-13T03:35:16.036Z,1000.59
2018-04-13T03:36:16.005Z,1000.60
2018-04-13T03:37:15.993Z,1000.58
2018-04-13T03:38:16.009Z,1000.60
2018-04-13T03:39:16.010Z,1000.64
2018-04-13T03:40:16.067Z,1000.62
2018-04-13T03:41:16.040Z,1000.58
2018-04-13T03:42:16.061Z,1000.63
2018-04-13T03:43:16.115Z,1000.58
2018-04-13T03:44:16.071Z,1000.65
2018-04-13T03:45:16.116Z,1000.66
2018-04-13T03:46:16.142Z,1000.66
2018-04-13T03:47:16.136Z,1000.65
2018-04-13T03:48:16.183Z,1000.69
2018-04-13T03:49:16.184Z,1000.68
2018-04-13T03:50:16.187Z,1000.72
2018-04-13T03:51:16.175Z,1000.73
2018-04-13T03:52:16.183Z,1000.73
2018-04-13T03:53:16.223Z,1000.75
2018-04-13T03:54:16.212Z,1000.80
2018-04-13T03:55:16.217Z,1000.77
2018-04-13T03:56:16.250Z,1000.79
2018-04-13T03:57:16.238Z,1000.83
2018-04-13T03:58:16.278Z,1000.79
2018-04-13T03:59:16.271Z,1000.82
2018-04-13T04:00:16.314Z,1000.85
2018-04-13T04:01:16.306Z,1000.88
2018-04-13T04:02:16.318Z,1000.89
2018-04-13T04:03:16.361Z,1000.90
2018-04-13T04:04:16.342Z,1001.00
2018-04-13T04:05:16.336Z,1000.98
2018-04-13T04:06:16.369Z,1001.01
2018-04-13T04:07:16.377Z,1001.01
2018-04-13T04:08:16.428Z,1001.00
2018-04-13T04:09:16.409Z,1000.98
2018-04-13T04:10:16.402Z,1000.98
2018-04-13T04:11:16.440Z,1000.91
2018-04-13T04:12:16.451Z,1001.01
2018-04-13T04:13:16.485Z,1000.96
2018-04-13T04:14:16.461Z,1000.98
2018-04-13T04:15:16.469Z,1001.05
2018-04-13T04:16:16.485Z,1000.93
2018-04-13T04:17:16.511Z,1000.98
2018-04-13T04:18:16.542Z,1000.99
2018-04-13T04:19:16.524Z,1000.94
2018-04-13T04:20:16.532Z,1000.97
2018-04-13T04:21:16.561Z,1000.98
2018-04-13T04:22:16.572Z,1001.01
2018-04-13T04:23:16.645Z,1000.99
2018-04-13T04:24:16.620Z,1000.95
2018-04-13T04:25:16.607Z,1000.99
2018-04-13T04:26:16.648Z,1001.01
2018-04-13T04:27:16.635Z,1001.04
2018-04-13T04:28:16.670Z,1001.13
2018-04-13T04:29:16.674Z,1001.02
2018-04-13T04:30:16.695Z,1001.03
2018-04-13T04:31:16.685Z,1001.03
2018-04-13T04:32:16.690Z,1001.04
2018-04-13T04:33:16.725Z,1001.02
2018-04-13T04:34:16.747Z,1001.09
2018-04-13T04:35:16.862Z,1001.13
2018-04-13T04:36:16.796Z,1001.16
2018-04-13T04:37:16.798Z,1001.20
2018-04-13T04:38:16.770Z,1001.26
2018-04-13T04:39:16.783Z,1001.19
2018-04-13T04:40:16.791Z,1001.21
2018-04-13T04:41:16.849Z,1001.21
2018-04-13T04:42:16.818Z,1001.19
2018-04-13T04:43:16.839Z,1001.20
2018-04-13T04:44:16.865Z,1001.23
2018-04-13T04:45:16.872Z,1001.18
2018-04-13T04:46:16.911Z,1001.24
2018-04-13T04:47:16.892Z,1001.23
2018-04-13T04:48:16.922Z,1001.24
2018-04-13T04:49:16.908Z,1001.23
2018-04-13T04:50:16.959Z,1001.32
2018-04-13T04:51:16.971Z,1001.23
2018-04-13T04:52:16.936Z,1001.21
2018-04-13T04:53:16.991Z,1001.20
2018-04-13T04:54:16.961Z,1001.24
2018-04-13T04:55:17.014Z,1001.24
2018-04-13T04:56:16.995Z,1001.24
2018-04-13T04:57:17.013Z,1001.22
2018-04-13T04:58:17.082Z,1001.16
2018-04-13T04:59:17.050Z,1001.18
2018-04-13T05:00:17.090Z,1001.20
2018-04-13T05:01:17.056Z,1001.21
2018-04-13T05:02:17.081Z,1001.28
2018-04-13T05:03:17.116Z,1001.30
2018-04-13T05:04:17.118Z,1001.37
2018-04-13T05:05:17.138Z,1001.34
2018-04-13T05:06:17.154Z,1001.35
2018-04-13T05:07:17.179Z,1001.40
2018-04-13T05:08:17.203Z,1001.39
2018-04-13T05:09:17.166Z,1001.44
2018-04-13T05:10:17.195Z,1001.45
2018-04-13T05:11:17.204Z,1001.52
2018-04-13T05:12:17.208Z,1001.66
2018-04-13T05:13:17.241Z,1001.55
2018-04-13T05:14:17.229Z,1001.46
2018-04-13T05:15:17.248Z,1001.53
2018-04-13T05:16:17.299Z,1001.45
2018-04-13T05:17:17.311Z,1001.53
2018-04-13T05:18:17.272Z,1001.53
2018-04-13T05:19:17.292Z,1001.66
2018-04-13T05:20:17.325Z,1001.52
2018-04-13T05:21:17.355Z,1001.58
2018-04-13T05:22:17.337Z,1001.60
2018-04-13T05:23:17.397Z,1001.67
2018-04-13T05:24:17.361Z,1001.60
2018-04-13T05:25:17.366Z,1001.62
2018-04-13T05:26:17.433Z,1001.67
2018-04-13T05:27:17.400Z,1001.66
2018-04-13T05:28:17.450Z,1001.64
2018-04-13T05:29:17.419Z,1001.64
2018-04-13T05:30:17.460Z,1001.66
2018-04-13T05:31:17.492Z,1001.61
2018-04-13T05:32:17.474Z,1001.60
2018-04-13T05:33:17.476Z,1001.57
2018-04-13T05:34:17.487Z,1001.58
2018-04-13T05:35:17.609Z,1001.66
2018-04-13T05:36:17.578Z,1001.61
2018-04-13T05:37:17.596Z,1001.64
2018-04-13T05:38:17.525Z,1001.61
2018-04-13T05:39:17.564Z,1001.56
2018-04-13T05:40:17.633Z,1001.55
2018-04-13T05:41:17.576Z,1001.71
2018-04-13T05:42:17.648Z,1001.64
2018-04-13T05:43:17.609Z,1001.58
2018-04-13T05:44:17.616Z,1001.64
2018-04-13T05:45:17.612Z,1001.62
2018-04-13T05:46:17.648Z,1001.63
2018-04-13T05:47:17.712Z,1001.62
2018-04-13T05:48:17.811Z,1001.62
2018-04-13T05:49:17.681Z,1001.62
2018-04-13T05:50:17.730Z,1001.65
2018-04-13T05:51:17.693Z,1001.60
2018-04-13T05:52:17.751Z,1001.61
2018-04-13T05:53:17.727Z,1001.58
2018-04-13T05:54:17.729Z,1001.61
2018-04-13T05:55:17.825Z,1001.55
2018-04-13T05:56:17.907Z,1001.55
2018-04-13T05:57:17.780Z,1001.57
2018-04-13T05:58:17.793Z,1001.55
2018-04-13T05:59:17.858Z,1001.54
2018-04-13T06:00:17.820Z,1001.58
2018-04-13T06:01:17.866Z,1001.52
2018-04-13T06:02:17.838Z,1001.63
2018-04-13T06:03:17.856Z,1001.59
2018-04-13T06:04:17.906Z,1001.62
2018-04-13T06:05:17.934Z,1001.62
2018-04-13T06:06:17.894Z,1001.66
2018-04-13T06:07:17.907Z,1001.65
2018-04-13T06:08:17.931Z,1001.57
2018-04-13T06:09:17.938Z,1001.57
2018-04-13T06:10:17.995Z,1001.64
2018-04-13T06:11:17.948Z,1001.60
2018-04-13T06:12:17.987Z,1001.67
2018-04-13T06:13:17.973Z,1001.61
2018-04-13T06:14:17.999Z,1001.62
2018-04-13T06:15:18.036Z,1001.64
2018-04-13T06:16:18.017Z,1001.51
2018-04-13T06:17:18.050Z,1001.51
2018-04-13T06:18:18.063Z,1001.65
2018-04-13T06:19:18.050Z,1001.65
2018-04-13T06:20:18.090Z,1001.59
2018-04-13T06:21:18.106Z,1001.59
2018-04-13T06:22:18.127Z,1001.50
2018-04-13T06:23:18.114Z,1001.56
2018-04-13T06:24:18.191Z,1001.57
2018-04-13T06:25:18.151Z,1001.67
2018-04-13T06:26:18.153Z,1001.69
2018-04-13T06:27:18.178Z,1001.70
2018-04-13T06:28:18.250Z,1001.80
2018-04-13T06:29:18.216Z,1001.82
2018-04-13T06:30:18.226Z,1001.92
2018-04-13T06:31:18.223Z,1001.91
2018-04-13T06:32:18.219Z,1001.92
2018-04-13T06:33:18.230Z,1002.02
2018-04-13T06:34:18.295Z,1002.00
2018-04-13T06:35:18.310Z,1002.04
2018-04-13T06:36:18.285Z,1002.06
2018-04-13T06:37:18.311Z,1001.98
2018-04-13T06:38:18.294Z,1001.99
2018-04-13T06:39:18.377Z,1002.02
2018-04-13T06:40:18.350Z,1002.15
2018-04-13T06:41:18.358Z,1002.16
2018-04-13T06:42:18.370Z,1002.13
2018-04-13T06:43:18.418Z,1002.16
2018-04-13T06:44:18.459Z,1002.10
2018-04-13T06:45:18.396Z,1002.16
2018-04-13T06:46:18.431Z,1002.22
2018-04-13T06:47:18.427Z,1002.20
2018-04-13T06:48:18.480Z,1002.24
2018-04-13T06:49:18.488Z,1002.37
2018-04-13T06:50:18.477Z,1002.46
2018-04-13T06:51:18.486Z,1002.42
2018-04-13T06:52:18.493Z,1002.56
2018-04-13T06:53:18.499Z,1002.73
2018-04-13T06:54:18.564Z,1002.66
2018-04-13T06:55:18.515Z,1002.76
2018-04-13T06:56:18.527Z,1002.73
2018-04-13T06:57:18.552Z,1002.76
2018-04-13T06:58:18.575Z,1002.72
2018-04-13T06:59:18.618Z,1002.66
2018-04-13T07:00:18.593Z,1002.72
2018-04-13T07:01:18.651Z,1002.78
2018-04-13T07:02:18.695Z,1002.75
2018-04-13T07:03:18.701Z,1002.76
2018-04-13T07:04:18.663Z,1002.76
2018-04-13T07:05:18.655Z,1002.75
2018-04-13T07:06:18.730Z,1002.77
2018-04-13T07:07:18.682Z,1002.80
2018-04-13T07:08:18.798Z,1002.84
2018-04-13T07:09:18.815Z,1002.80
2018-04-13T07:10:18.702Z,1002.80
2018-04-13T07:11:18.737Z,1002.74
2018-04-13T07:12:18.752Z,1002.73
2018-04-13T07:13:18.766Z,1002.72
2018-04-13T07:14:18.753Z,1002.78
2018-04-13T07:15:18.851Z,1002.83
2018-04-13T07:16:18.780Z,1002.89
2018-04-13T07:17:18.807Z,1002.86
2018-04-13T07:18:18.851Z,1002.84
2018-04-13T07:19:18.871Z,1002.83
2018-04-13T07:20:18.879Z,1002.79
2018-04-13T07:21:18.851Z,1002.78
2018-04-13T07:22:18.857Z,1002.77
2018-04-13T07:23:18.995Z,1002.75
2018-04-13T07:24:18.889Z,1002.73
2018-04-13T07:25:18.909Z,1002.69
2018-04-13T07:26:18.914Z,1002.63
2018-04-13T07:27:18.929Z,1002.63
2018-04-13T07:28:18.996Z,1002.66
2018-04-13T07:29:18.953Z,1002.65
2018-04-13T07:30:19.000Z,1002.63
2018-04-13T07:31:18.977Z,1002.69
2018-04-13T07:32:18.987Z,1002.73
2018-04-13T07:33:19.065Z,1002.75
2018-04-13T07:34:19.036Z,1002.79
2018-04-13T07:35:19.108Z,1002.88
2018-04-13T07:36:19.041Z,1002.88
2018-04-13T07:37:19.059Z,1002.95
2018-04-13T07:38:19.153Z,1002.98
2018-04-13T07:39:19.112Z,1003.00
2018-04-13T07:40:19.085Z,1002.97
2018-04-13T07:41:19.109Z,1002.97
2018-04-13T07:42:19.110Z,1002.94
2018-04-13T07:43:19.227Z,1003.02
2018-04-13T07:44:19.146Z,1003.04
2018-04-13T07:45:19.159Z,1003.06
2018-04-13T07:46:19.174Z,1003.13
2018-04-13T07:47:19.221Z,1003.22
2018-04-13T07:48:19.183Z,1003.30
2018-04-13T07:49:19.210Z,1003.27
2018-04-13T07:50:19.684Z,1003.26
2018-04-13T07:51:19.245Z,1003.25
2018-04-13T07:52:19.789Z,1003.33
2018-04-13T07:53:19.278Z,1003.39
2018-04-13T07:54:19.299Z,1003.40
2018-04-13T07:55:19.283Z,1003.41
2018-04-13T07:56:19.314Z,1003.50
2018-04-13T07:57:19.304Z,1003.43
2018-04-13T07:58:19.313Z,1003.36
2018-04-13T07:59:19.371Z,1003.20
2018-04-13T08:00:19.731Z,1003.13
2018-04-13T08:01:19.367Z,1003.24
2018-04-13T08:02:19.375Z,1003.34
2018-04-13T08:03:19.391Z,1003.28
2018-04-13T08:04:19.551Z,1003.29
2018-04-13T08:05:19.694Z,1003.25
2018-04-13T08:06:19.462Z,1003.22
2018-04-13T08:07:19.450Z,1003.22
2018-04-13T08:08:19.450Z,1003.14
2018-04-13T08:09:19.473Z,1003.13
2018-04-13T08:10:19.504Z,1003.08
2018-04-13T08:11:19.498Z,1003.04
2018-04-13T08:12:19.575Z,1003.10
2018-04-13T08:13:19.520Z,1003.12
2018-04-13T08:14:19.583Z,1003.09
2018-04-13T08:15:19.533Z,1003.09
2018-04-13T08:16:19.550Z,1003.08
2018-04-13T08:17:19.569Z,1003.04
2018-04-13T08:18:19.591Z,1003.01
2018-04-13T08:19:19.592Z,1002.96
2018-04-13T08:20:19.602Z,1002.86
2018-04-13T08:21:19.628Z,1002.81
2018-04-13T08:22:19.627Z,1002.68
2018-04-13T08:23:19.685Z,1002.69
2018-04-13T08:24:19.749Z,1002.59
2018-04-13T08:25:19.664Z,1002.54
2018-04-13T08:26:19.687Z,1002.49
2018-04-13T08:27:19.684Z,1002.54
2018-04-13T08:28:19.748Z,1002.51
2018-04-13T08:29:19.724Z,1002.49
2018-04-13T08:30:19.753Z,1002.46
2018-04-13T08:31:19.745Z,1002.45
2018-04-13T08:32:19.773Z,1002.41
2018-04-13T08:33:19.797Z,1002.40
2018-04-13T08:34:19.784Z,1002.48
2018-04-13T08:35:19.850Z,1002.51
2018-04-13T08:36:19.825Z,1002.57
2018-04-13T08:37:19.806Z,1002.54
2018-04-13T08:38:19.864Z,1002.59
2018-04-13T08:39:19.830Z,1002.51
2018-04-13T08:40:19.880Z,1002.58
2018-04-13T08:41:19.871Z,1002.44
2018-04-13T08:42:19.882Z,1002.50
2018-04-13T08:43:19.899Z,1002.61
2018-04-13T08:44:19.952Z,1002.58
2018-04-13T08:45:19.972Z,1002.43
2018-04-13T08:46:19.956Z,1002.44
2018-04-13T08:47:20.008Z,1002.51
2018-04-13T08:48:19.975Z,1002.47
2018-04-13T08:49:19.975Z,1002.37
2018-04-13T08:50:20.024Z,1002.23
2018-04-13T08:51:20.000Z,1002.36
2018-04-13T08:52:20.046Z,1002.31
2018-04-13T08:53:20.029Z,1002.27
2018-04-13T08:54:20.026Z,1002.26
2018-04-13T08:55:20.061Z,1002.26
2018-04-13T08:56:20.082Z,1002.21
2018-04-13T08:57:20.111Z,1002.20
2018-04-13T08:58:20.077Z,1002.21
2018-04-13T08:59:20.091Z,1002.18
2018-04-13T09:00:20.142Z,1002.15
2018-04-13T09:01:20.110Z,1002.23
2018-04-13T09:02:20.132Z,1002.26
2018-04-13T09:03:20.151Z,1002.32
2018-04-13T09:04:20.158Z,1002.33
2018-04-13T09:05:20.240Z,1002.33
2018-04-13T09:06:20.229Z,1002.39
2018-04-13T09:07:20.203Z,1002.38
2018-04-13T09:08:20.220Z,1002.46
2018-04-13T09:09:20.214Z,1002.48
2018-04-13T09:10:20.300Z,1002.49
2018-04-13T09:11:20.242Z,1002.49
2018-04-13T09:12:20.267Z,1002.39
2018-04-13T09:13:20.322Z,1002.39
2018-04-13T09:14:20.275Z,1002.39
2018-04-13T09:15:20.353Z,1002.26
2018-04-13T09:16:20.296Z,1002.29
2018-04-13T09:17:20.322Z,1002.32
2018-04-13T09:18:20.335Z,1002.41
2018-04-13T09:19:20.339Z,1002.39
2018-04-13T09:20:20.417Z,1002.45
2018-04-13T09:21:20.368Z,1002.50
2018-04-13T09:22:20.383Z,1002.53
2018-04-13T09:23:20.430Z,1002.55
2018-04-13T09:24:20.401Z,1002.57
2018-04-13T09:25:20.459Z,1002.55
2018-04-13T09:26:20.443Z,1002.57
2018-04-13T09:27:20.488Z,1002.56
2018-04-13T09:28:20.456Z,1002.61
2018-04-13T09:29:20.478Z,1002.67
2018-04-13T09:30:20.534Z,1002.70
2018-04-13T09:31:20.485Z,1002.78
2018-04-13T09:32:20.512Z,1002.76
2018-04-13T09:33:20.509Z,1002.74
2018-04-13T09:34:20.546Z,1002.80
2018-04-13T09:35:20.594Z,1002.78
2018-04-13T09:36:20.584Z,1002.76
2018-04-13T09:37:20.570Z,1002.77
2018-04-13T09:38:20.638Z,1002.81
2018-04-13T09:39:20.602Z,1002.70
2018-04-13T09:40:20.642Z,1002.86
2018-04-13T09:41:20.639Z,1002.78
2018-04-13T09:42:20.664Z,1002.82
2018-04-13T09:43:20.681Z,1002.83
2018-04-13T09:44:20.683Z,1002.84
2018-04-13T09:45:20.692Z,1002.79
2018-04-13T09:46:20.687Z,1002.80
2018-04-13T09:47:20.746Z,1002.91
2018-04-13T09:48:20.707Z,1002.84
2018-04-13T09:49:20.746Z,1002.83
2018-04-13T09:50:20.780Z,1002.98
2018-04-13T09:51:20.757Z,1002.89
2018-04-13T09:52:20.753Z,1002.82
2018-04-13T09:53:20.772Z,1002.88
2018-04-13T09:54:20.800Z,1002.89
2018-04-13T09:55:20.865Z,1002.92
2018-04-13T09:56:20.820Z,1002.99
2018-04-13T09:57:20.830Z,1002.96
2018-04-13T09:58:20.900Z,1003.00
2018-04-13T09:59:20.860Z,1003.00
2018-04-13T10:00:20.880Z,1003.02
2018-04-13T10:01:20.898Z,1003.03
2018-04-13T10:02:20.890Z,1003.03
2018-04-13T10:03:20.986Z,1003.04
2018-04-13T10:04:20.922Z,1003.02
2018-04-13T10:05:20.930Z,1002.98
2018-04-13T10:06:20.950Z,1003.07
2018-04-13T10:07:20.974Z,1003.02
2018-04-13T10:08:21.008Z,1003.00
2018-04-13T10:09:20.984Z,1003.01
2018-04-13T10:10:21.032Z,1003.08
2018-04-13T10:11:21.017Z,1003.09
2018-04-13T10:12:21.058Z,1003.08
2018-04-13T10:13:21.091Z,1003.04
2018-04-13T10:14:21.058Z,1002.97
2018-04-13T10:15:21.059Z,1002.93
2018-04-13T10:16:21.100Z,1002.94
2018-04-13T10:17:21.123Z,1002.88
2018-04-13T10:18:21.160Z,1002.94
2018-04-13T10:19:21.114Z,1002.95
2018-04-13T10:20:21.122Z,1002.95
2018-04-13T10:21:21.174Z,1002.96
2018-04-13T10:22:21.173Z,1002.98
2018-04-13T10:23:21.198Z,1002.91
2018-04-13T10:24:21.188Z,1002.86
2018-04-13T10:25:21.210Z,1002.86
2018-04-13T10:26:21.256Z,1002.85
2018-04-13T10:27:21.219Z,1002.87
2018-04-13T10:28:21.240Z,1002.85
2018-04-13T10:29:21.249Z,1002.87
2018-04-13T10:30:21.264Z,1002.89
2018-04-13T10:31:21.318Z,1002.95
2018-04-13T10:32:21.311Z,1002.95
2018-04-13T10:33:21.365Z,1003.01
2018-04-13T10:34:21.325Z,1003.09
2018-04-13T10:35:21.326Z,1003.05
2018-04-13T10:36:21.402Z,1003.11
2018-04-13T10:37:21.383Z,1003.15
2018-04-13T10:38:21.373Z,1003.21
2018-04-13T10:39:21.401Z,1003.18
2018-04-13T10:40:21.428Z,1003.20
2018-04-13T10:41:21.482Z,1003.24
2018-04-13T10:42:21.474Z,1003.20
2018-04-13T10:43:21.441Z,1003.20
2018-04-13T10:44:21.504Z,1003.13
2018-04-13T10:45:21.455Z,1003.09
2018-04-13T10:46:21.470Z,1003.08
2018-04-13T10:47:21.494Z,1003.07
2018-04-13T10:48:21.502Z,1003.09
2018-04-13T10:49:21.589Z,1003.09
2018-04-13T10:50:21.545Z,1003.08
2018-04-13T10:51:21.535Z,1003.13
2018-04-13T10:52:21.611Z,1003.16
2018-04-13T10:53:21.574Z,1003.13
2018-04-13T10:54:21.618Z,1003.16
2018-04-13T10:55:21.608Z,1003.22
2018-04-13T10:56:21.626Z,1003.23
2018-04-13T10:57:21.659Z,1003.24
2018-04-13T10:58:21.653Z,1003.33
2018-04-13T10:59:21.669Z,1003.33
2018-04-13T11:00:21.657Z,1003.22
2018-04-13T11:01:21.678Z,1003.24
2018-04-13T11:02:21.739Z,1003.32
2018-04-13T11:03:21.742Z,1003.33
2018-04-13T11:04:21.762Z,1003.40
2018-04-13T11:05:21.718Z,1003.47
2018-04-13T11:06:21.748Z,1003.47
2018-04-13T11:07:21.772Z,1003.34
2018-04-13T11:08:21.825Z,1003.39
2018-04-13T11:09:21.789Z,1003.26
2018-04-13T11:10:21.825Z,1003.32
2018-04-13T11:11:21.827Z,1003.28
2018-04-13T11:12:21.825Z,1003.22
2018-04-13T11:13:21.861Z,1003.21
2018-04-13T11:14:21.874Z,1003.17
2018-04-13T11:15:21.869Z,1003.18
2018-04-13T11:16:21.893Z,1003.10
2018-04-13T11:17:21.928Z,1003.12
2018-04-13T11:18:21.901Z,1003.10
2018-04-13T11:19:21.906Z,1003.13
2018-04-13T11:20:21.938Z,1003.09
2018-04-13T11:21:21.948Z,1003.10
2018-04-13T11:22:21.993Z,1003.12
2018-04-13T11:23:21.970Z,1003.09
2018-04-13T11:24:21.973Z,1003.07
2018-04-13T11:25:22.038Z,1003.04
2018-04-13T11:26:22.000Z,1003.01
2018-04-13T11:27:22.051Z,1003.01
2018-04-13T11:28:22.032Z,1003.07
2018-04-13T11:29:22.039Z,1003.10
2018-04-13T11:30:22.047Z,1003.03
2018-04-13T11:31:22.092Z,1003.02
2018-04-13T11:32:22.116Z,1002.96
2018-04-13T11:33:22.125Z,1002.98
2018-04-13T11:34:22.104Z,1002.93
2018-04-13T11:35:22.124Z,1003.01
2018-04-13T11:36:22.209Z,1002.97
2018-04-13T11:37:22.135Z,1002.99
2018-04-13T11:38:22.157Z,1002.90
2018-04-13T11:39:22.190Z,1002.89
2018-04-13T11:40:22.209Z,1002.86
2018-04-13T11:41:22.333Z,1002.85
2018-04-13T11:42:22.225Z,1002.81
2018-04-13T11:43:22.230Z,1002.78
2018-04-13T11:44:22.270Z,1002.80
2018-04-13T11:45:22.253Z,1002.73
2018-04-13T11:46:22.299Z,1002.74
2018-04-13T11:47:22.281Z,1002.71
2018-04-13T11:48:22.314Z,1002.72
2018-04-13T11:49:22.328Z,1002.73
2018-04-13T11:50:22.327Z,1002.71
2018-04-13T11:51:22.389Z,1002.71
2018-04-13T11:52:22.343Z,1002.74
2018-04-13T11:53:22.363Z,1002.76
2018-04-13T11:54:22.381Z,1002.75
2018-04-13T11:55:22.394Z,1002.74
2018-04-13T11:56:22.441Z,1002.77
2018-04-13T11:57:22.434Z,1002.74
2018-04-13T11:58:22.445Z,1002.73
2018-04-13T11:59:22.446Z,1002.75
2018-04-13T12:00:22.475Z,1002.80
2018-04-13T12:01:22.508Z,1002.73
2018-04-13T12:02:22.483Z,1002.87
2018-04-13T12:03:22.504Z,1002.76
2018-04-13T12:04:22.554Z,1002.73
2018-04-13T12:05:22.522Z,1002.71